»·PEaware :: N973SE KOXR-KSBP

N973SE :: KOXR-KSBP

FLIGHT INFORMATION

Flight Status: Arrived
Operator: Privately registered:
United States
More flights under this callsign
Pilot: Stig E. (4778)
Aircraft: CESSNA 310
(C310)
More flights by this aircraft type
Origin: KOXR Oxnard
United States
Destination: KSBP San Luis Co Regl
United States
More flights between these airports :: More routes between these airports
Route: RZS MISHI
File this flight plan on PilotEdge
Remarks: +CW /
Altitude:
(Current/Filed)
12,500ft
Speed:
(Current/Filed)
170kts
Departed: 08-Feb-19 10:24 AM
Arrived: 08-Feb-19 10:59 AM
Distance/Time
Traveled:
94nm/0:35
Distance/Time
To Go:
Arrived

Flight Plot

Page will automatically refresh every two minutes.

Flight plan parsing failed; only flown route is shown


Map Options




Map Legend


Flown Route
Filed Route
Departure Airport
Arrival Airport
Navaid (VOR, NDB)
Fix

Horizontal Profiles

Position Reports

Time Latitude Longitude Heading Altitude Ground
Speed
08-Feb-19 09:16 34.198719 -119.202074 359 43ft 0kts
08-Feb-19 09:17 34.198719 -119.202074 359 43ft 0kts
08-Feb-19 09:18 34.198719 -119.202074 359 43ft 0kts
08-Feb-19 09:19 34.198719 -119.202074 359 43ft 0kts
08-Feb-19 09:20 34.198719 -119.202074 359 43ft 0kts
08-Feb-19 09:21 34.198719 -119.202074 359 43ft 0kts
08-Feb-19 09:22 34.198719 -119.202074 359 43ft 0kts
08-Feb-19 09:23 34.198719 -119.202074 359 43ft 0kts
08-Feb-19 09:24 34.198719 -119.202074 359 43ft 0kts
08-Feb-19 09:25 34.198719 -119.202074 359 43ft 0kts
08-Feb-19 09:26 34.198719 -119.202074 359 43ft 0kts
08-Feb-19 09:27 34.198719 -119.202074 359 43ft 0kts
08-Feb-19 09:28 34.198719 -119.202074 359 43ft 0kts
08-Feb-19 09:29 34.198719 -119.202074 359 43ft 0kts
08-Feb-19 09:30 34.198719 -119.202074 359 43ft 0kts
08-Feb-19 09:31 34.198719 -119.202074 359 43ft 0kts
08-Feb-19 09:32 34.198719 -119.202074 359 43ft 0kts
08-Feb-19 09:33 34.198719 -119.202074 359 43ft 0kts
08-Feb-19 09:34 34.198719 -119.202074 359 43ft 0kts
08-Feb-19 09:35 34.198719 -119.202074 359 43ft 0kts
08-Feb-19 09:36 34.198719 -119.202074 359 43ft 0kts
08-Feb-19 09:37 34.198719 -119.202074 359 43ft 0kts
08-Feb-19 09:38 34.198719 -119.202074 359 43ft 0kts
08-Feb-19 09:39 34.198719 -119.202074 359 43ft 0kts
08-Feb-19 09:40 34.198719 -119.202074 359 43ft 0kts
08-Feb-19 09:41 34.198719 -119.202074 359 43ft 0kts
08-Feb-19 09:42 34.198719 -119.202074 359 43ft 0kts
08-Feb-19 09:43 34.198719 -119.202074 359 43ft 0kts
08-Feb-19 09:44 34.198719 -119.202074 359 43ft 0kts
08-Feb-19 09:45 34.198719 -119.202074 359 43ft 0kts
08-Feb-19 09:46 34.198719 -119.202074 359 43ft 0kts
08-Feb-19 09:47 34.198719 -119.202074 359 43ft 0kts
08-Feb-19 09:48 34.198719 -119.202074 359 43ft 0kts
08-Feb-19 09:49 34.198719 -119.202074 359 43ft 0kts
08-Feb-19 09:50 34.198719 -119.202074 359 43ft 0kts
08-Feb-19 09:51 34.198719 -119.202074 359 43ft 0kts
08-Feb-19 09:52 34.198719 -119.202074 359 43ft 0kts
08-Feb-19 09:53 34.198719 -119.202074 359 43ft 0kts
08-Feb-19 09:54 34.198719 -119.202074 359 43ft 0kts
08-Feb-19 09:55 34.198719 -119.202074 359 43ft 0kts
08-Feb-19 09:56 34.198719 -119.202074 359 43ft 0kts
08-Feb-19 09:57 34.198719 -119.202074 359 43ft 0kts
08-Feb-19 09:58 34.198719 -119.202074 359 43ft 0kts
08-Feb-19 09:59 34.198719 -119.202074 359 43ft 0kts
08-Feb-19 10:00 34.198719 -119.202074 359 43ft 0kts
08-Feb-19 10:01 34.198719 -119.202074 359 43ft 0kts
08-Feb-19 10:02 34.198719 -119.202074 359 43ft 0kts
08-Feb-19 10:03 34.198719 -119.202074 359 43ft 0kts
08-Feb-19 10:04 34.198719 -119.202074 359 43ft 0kts
08-Feb-19 10:05 34.198719 -119.202074 359 43ft 0kts
08-Feb-19 10:06 34.198719 -119.202074 359 43ft 0kts
08-Feb-19 10:07 34.198719 -119.202074 359 43ft 0kts
08-Feb-19 10:08 34.198719 -119.202074 359 43ft 0kts
08-Feb-19 10:09 34.198719 -119.202074 359 43ft 0kts
08-Feb-19 10:10 34.198719 -119.202074 359 43ft 0kts
08-Feb-19 10:11 34.198719 -119.202074 359 43ft 0kts
08-Feb-19 10:12 34.198719 -119.202074 359 43ft 0kts
08-Feb-19 10:13 34.198719 -119.202074 359 43ft 0kts
08-Feb-19 10:14 34.198719 -119.202074 359 43ft 0kts
08-Feb-19 10:15 34.198719 -119.202074 359 43ft 0kts
08-Feb-19 10:16 34.198719 -119.202074 359 43ft 0kts
08-Feb-19 10:17 34.198719 -119.202074 359 43ft 0kts
08-Feb-19 10:19 34.199180 -119.202043 7 43ft 0kts
08-Feb-19 10:20 34.199180 -119.202043 7 43ft 0kts
08-Feb-19 10:21 34.199740 -119.200811 90 44ft 12kts
08-Feb-19 10:22 34.199951 -119.197519 359 46ft 0kts
08-Feb-19 10:23 34.200375 -119.197520 0 46ft 7kts
08-Feb-19 10:24 34.201115 -119.224183 272 683ft 136kts
08-Feb-19 10:25 34.228733 -119.259478 326 2003ft 168kts
08-Feb-19 10:26 34.267703 -119.291184 326 3006ft 169kts
08-Feb-19 10:27 34.306697 -119.323362 315 4005ft 170kts
08-Feb-19 10:28 34.325841 -119.374870 292 5008ft 170kts
08-Feb-19 10:29 34.343697 -119.428087 292 6008ft 171kts
08-Feb-19 10:30 34.361780 -119.481958 292 7012ft 173kts
08-Feb-19 10:31 34.380492 -119.535218 304 8010ft 170kts
08-Feb-19 10:32 34.406945 -119.582897 303 9011ft 171kts
08-Feb-19 10:33 34.433335 -119.631173 303 10014ft 172kts
08-Feb-19 10:34 34.460879 -119.681624 303 10502ft 195kts
08-Feb-19 10:35 34.491821 -119.738508 303 10495ft 202kts
08-Feb-19 10:36 34.525964 -119.789657 317 10496ft 193kts
08-Feb-19 10:37 34.564373 -119.831910 317 10223ft 185kts
08-Feb-19 10:37 34.595878 -119.866665 317 10014ft 174kts
08-Feb-19 10:38 34.628729 -119.902991 317 10471ft 150kts
08-Feb-19 10:40 34.666537 -119.944767 317 10501ft 162kts
08-Feb-19 10:41 34.700313 -119.982163 317 10500ft 165kts
08-Feb-19 10:41 34.728787 -120.013727 317 10500ft 166kts
08-Feb-19 10:42 34.762909 -120.051592 317 10500ft 166kts
08-Feb-19 10:43 34.796787 -120.089227 317 10166ft 168kts
08-Feb-19 10:44 34.832170 -120.128575 317 9470ft 174kts
08-Feb-19 10:45 34.867910 -120.168380 317 8771ft 174kts
08-Feb-19 10:46 34.903624 -120.208201 317 8068ft 173kts
08-Feb-19 10:47 34.939046 -120.247726 317 7367ft 172kts
08-Feb-19 10:48 34.974257 -120.287097 317 6648ft 172kts
08-Feb-19 10:49 35.009982 -120.327089 317 5751ft 175kts
08-Feb-19 10:50 35.045973 -120.367440 317 4848ft 174kts
08-Feb-19 10:51 35.081601 -120.407432 317 3946ft 173kts
08-Feb-19 10:52 35.116897 -120.447097 317 3045ft 171kts
08-Feb-19 10:53 35.148616 -120.490959 306 2147ft 174kts
08-Feb-19 10:54 35.175756 -120.536912 308 1623ft 141kts
08-Feb-19 10:55 35.197202 -120.569099 305 1062ft 113kts
08-Feb-19 10:56 35.214468 -120.600641 303 603ft 108kts
08-Feb-19 10:57 35.230344 -120.628814 306 321ft 93kts
08-Feb-19 10:58 35.239733 -120.644121 40 216ft 14kts
08-Feb-19 10:59 35.239819 -120.644032 40 216ft 0kts
08-Feb-19 11:00 35.239819 -120.644032 40 216ft 0kts
08-Feb-19 11:01 35.239819 -120.644032 40 216ft 0kts
08-Feb-19 11:02 35.239841 -120.644009 40 215ft 2kts
08-Feb-19 11:03 35.238576 -120.639966 69 216ft 15kts
08-Feb-19 11:04 35.238824 -120.639088 93 216ft 0kts
08-Feb-19 11:05 35.238824 -120.639088 93 216ft 0kts
08-Feb-19 11:06 35.238824 -120.639088 93 216ft 0kts
08-Feb-19 11:07 35.238824 -120.639088 93 216ft 0kts
08-Feb-19 11:08 35.238824 -120.639088 93 216ft 0kts
08-Feb-19 11:09 35.238824 -120.639088 93 216ft 0kts
08-Feb-19 11:10 35.238824 -120.639088 93 216ft 0kts
08-Feb-19 11:11 35.238824 -120.639088 93 216ft 0kts
08-Feb-19 11:12 35.238824 -120.639088 93 216ft 0kts
08-Feb-19 11:13 35.238824 -120.639088 93 216ft 0kts

Navigation Log

Ident Type
Flight plan parsing failed, navigation log unavailable